Time;durP1;ratioP1;P1;durP2;ratioP2;P2;SDS_P1;SDS_P2;PMS_P1;PMS_P2;Temp;Humidity;BMP_temperature;BMP_pressure;BME280_temperature;BME280_humidity;BME280_pressure;Samples;Min_cycle;Max_cycle;Signal;HPM_P1;HPM_P2
2021/11/10 00:01:50;;;;;;;27.02;8.55;;;11.30;99.90;;;;;;5043353;28;20046;-81
2021/11/10 00:04:18;;;;;;;28.00;8.88;;;10.60;99.90;;;;;;5067584;28;20032;-82
2021/11/10 00:06:44;;;;;;;38.25;9.70;;;10.40;99.90;;;;;;5046384;28;20036;-81
2021/11/10 00:09:10;;;;;;;26.73;8.35;;;10.50;99.90;;;;;;5075384;28;20044;-83
2021/11/10 00:11:36;;;;;;;32.92;9.15;;;10.40;99.90;;;;;;5055594;28;20044;-82
2021/11/10 00:14:01;;;;;;;26.00;8.82;;;10.40;99.90;;;;;;5036079;28;20099;-81
2021/11/10 00:16:30;;;;;;;32.40;8.82;;;11.20;99.90;;;;;;5067019;28;20136;-84
2021/11/10 00:18:56;;;;;;;26.40;8.48;;;10.80;99.90;;;;;;5101466;28;20040;-84
2021/11/10 00:21:25;;;;;;;22.92;7.85;;;10.40;99.90;;;;;;5051947;28;20040;-82
2021/11/10 00:23:51;;;;;;;30.05;8.55;;;10.40;99.90;;;;;;5061041;28;20476;-81
2021/11/10 00:26:18;;;;;;;30.38;9.10;;;10.40;99.90;;;;;;5061162;28;20040;-82
2021/11/10 00:28:44;;;;;;;28.90;8.65;;;10.30;99.90;;;;;;5054551;28;20050;-81
2021/11/10 00:31:10;;;;;;;28.08;9.30;;;10.40;99.90;;;;;;5061581;28;20384;-83
2021/11/10 00:33:38;;;;;;;29.27;8.85;;;10.40;99.90;;;;;;5072759;28;20048;-81
2021/11/10 00:36:04;;;;;;;29.65;8.95;;;10.40;99.90;;;;;;5067586;28;20392;-81
2021/11/10 00:38:30;;;;;;;30.42;9.32;;;10.30;99.90;;;;;;5043873;28;20079;-81
2021/11/10 00:40:59;;;;;;;25.92;8.70;;;10.40;99.90;;;;;;5060685;28;20039;-81
2021/11/10 00:43:24;;;;;;;26.98;9.15;;;10.30;99.90;;;;;;5054272;28;20472;-81
2021/11/10 00:45:50;;;;;;;31.02;8.60;;;10.30;99.90;;;;;;5073742;28;20043;-81
2021/11/10 00:48:16;;;;;;;28.92;9.50;;;10.30;99.90;;;;;;5050999;28;20040;-81
2021/11/10 00:50:43;;;;;;;25.23;8.95;;;10.30;99.90;;;;;;5031191;28;20040;-84
2021/11/10 00:53:09;;;;;;;26.38;8.18;;;10.30;99.90;;;;;;5042036;28;20040;-82
2021/11/10 00:55:45;;;;;;;;;;;;;;;;;;;;;
2021/11/10 00:58:11;;;;;;;28.00;8.88;;;10.30;99.90;;;;;;5054325;28;20048;-81
2021/11/10 01:00:38;;;;;;;25.42;8.95;;;10.30;99.90;;;;;;5047010;28;20044;-82
2021/11/10 01:03:08;;;;;;;22.65;8.90;;;10.30;99.90;;;;;;5056371;28;20380;-82
2021/11/10 01:05:35;;;;;;;32.03;10.15;;;10.40;99.90;;;;;;5051002;28;20110;-83
2021/11/10 01:08:03;;;;;;;25.60;9.45;;;10.30;99.90;;;;;;5065493;28;20048;-82
2021/11/10 01:10:31;;;;;;;23.70;9.25;;;10.30;99.90;;;;;;5038856;28;20444;-82
2021/11/10 01:13:07;;;;;;;29.70;10.07;;;10.20;99.90;;;;;;5041628;28;20093;-82
2021/11/10 01:15:34;;;;;;;23.58;9.52;;;10.20;99.90;;;;;;5041563;28;20076;-83
2021/11/10 01:18:00;;;;;;;30.77;10.02;;;10.20;99.90;;;;;;5045890;28;20044;-82
2021/11/10 01:20:26;;;;;;;30.80;10.23;;;10.20;99.90;;;;;;5051500;28;20089;-82
2021/11/10 01:22:52;;;;;;;31.80;10.18;;;10.20;99.90;;;;;;5044051;28;20044;-82
2021/11/10 01:25:18;;;;;;;24.05;9.48;;;10.10;99.90;;;;;;5048757;28;20070;-82
2021/11/10 01:27:44;;;;;;;26.75;10.80;;;10.20;99.90;;;;;;5038648;28;20044;-82
2021/11/10 01:30:14;;;;;;;29.52;10.90;;;10.10;99.90;;;;;;5092122;28;20036;-82
2021/11/10 01:32:41;;;;;;;29.10;10.80;;;10.10;99.90;;;;;;5043479;28;20051;-82
2021/11/10 01:35:10;;;;;;;29.55;10.93;;;10.10;99.90;;;;;;5052379;28;20047;-82
2021/11/10 01:37:36;;;;;;;28.27;11.13;;;10.10;99.90;;;;;;5065534;28;20127;-84
2021/11/10 01:40:12;;;;;;;29.00;11.43;;;10.10;99.90;;;;;;5080807;28;20074;-82
2021/11/10 01:42:38;;;;;;;;;;;10.10;99.90;;;;;;5064729;28;20484;-82
2021/11/10 01:45:05;;;;;;;33.45;11.10;;;10.00;99.90;;;;;;5066489;28;20010;-83
2021/11/10 01:47:31;;;;;;;29.13;11.40;;;10.00;99.90;;;;;;5077632;28;20485;-83
2021/11/10 01:49:57;;;;;;;31.27;12.40;;;10.00;99.90;;;;;;5066741;28;20042;-83
2021/11/10 01:52:28;;;;;;;30.05;12.38;;;10.00;99.90;;;;;;5070454;28;20468;-82
2021/11/10 01:55:04;;;;;;;29.10;11.77;;;9.90;99.90;;;;;;5092874;28;20074;-82
2021/11/10 01:57:30;;;;;;;27.85;12.13;;;9.90;99.90;;;;;;5076772;28;20040;-83
2021/11/10 02:00:13;;;;;;;32.10;12.85;;;9.90;99.90;;;;;;5067946;28;20032;-83
2021/11/10 02:02:41;;;;;;;35.00;12.98;;;9.90;99.90;;;;;;5068525;28;20117;-83
2021/11/10 02:05:17;;;;;;;28.67;13.40;;;10.00;99.90;;;;;;5076940;28;20097;-83
2021/11/10 02:07:44;;;;;;;32.45;12.45;;;9.90;99.90;;;;;;5060226;28;20097;-83
2021/11/10 02:10:13;;;;;;;40.00;13.43;;;9.90;99.90;;;;;;5077081;28;20475;-83
2021/11/10 02:12:39;;;;;;;39.00;13.35;;;9.80;99.90;;;;;;5064400;28;20048;-82
2021/11/10 02:15:10;;;;;;;32.13;12.85;;;10.10;99.90;;;;;;5059168;28;20438;-82
2021/11/10 02:17:37;;;;;;;33.25;12.80;;;9.80;99.90;;;;;;5053575;28;20036;-83
2021/11/10 02:20:09;;;;;;;34.95;14.25;;;9.80;99.90;;;;;;5093824;28;20104;-83
2021/11/10 02:22:36;;;;;;;32.20;13.30;;;9.80;99.90;;;;;;5076239;28;20036;-83
2021/11/10 02:25:04;;;;;;;35.53;13.32;;;9.80;99.90;;;;;;5060463;28;20051;-83
2021/11/10 02:27:34;;;;;;;36.38;13.60;;;9.80;99.90;;;;;;5075273;28;20036;-83
2021/11/10 02:30:09;;;;;;;37.30;13.85;;;9.90;99.90;;;;;;5092145;28;20040;-79
2021/11/10 02:32:35;;;;;;;28.48;15.02;;;9.80;99.90;;;;;;5094072;28;20044;-79
2021/11/10 02:35:02;;;;;;;35.83;14.32;;;9.80;99.90;;;;;;5091478;28;20472;-79
2021/11/10 02:37:28;;;;;;;30.00;13.55;;;9.80;99.90;;;;;;5075959;28;20044;-79
2021/11/10 02:39:56;;;;;;;32.05;13.43;;;9.90;99.90;;;;;;5069987;28;20436;-77
2021/11/10 02:42:23;;;;;;;26.88;13.38;;;9.80;99.90;;;;;;5041825;28;20044;-78
2021/11/10 02:44:54;;;;;;;36.13;14.05;;;9.80;99.90;;;;;;5071770;28;20470;-78
2021/11/10 02:47:22;;;;;;;36.20;14.10;;;9.80;99.90;;;;;;5060043;28;20101;-78
2021/11/10 02:49:48;;;;;;;29.23;14.00;;;9.80;99.90;;;;;;5042162;28;20041;-78
2021/11/10 02:52:18;;;;;;;29.50;13.75;;;9.80;99.90;;;;;;5068153;28;20431;-78
2021/11/10 02:54:54;;;;;;;37.28;13.45;;;9.90;99.90;;;;;;5078305;28;20047;-78
2021/11/10 02:57:22;;;;;;;31.73;14.15;;;9.80;99.90;;;;;;5024867;28;20040;-78
2021/11/10 02:59:48;;;;;;;37.05;14.48;;;9.80;99.90;;;;;;5085568;28;20060;-78
2021/11/10 03:02:14;;;;;;;33.60;15.73;;;9.80;99.90;;;;;;5065864;28;20553;-79
2021/11/10 03:04:44;;;;;;;34.25;14.63;;;9.80;99.90;;;;;;5053686;28;20047;-79
2021/11/10 03:07:10;;;;;;;33.13;15.88;;;9.80;99.90;;;;;;5072226;28;20101;-77
2021/11/10 03:09:37;;;;;;;31.75;15.02;;;9.90;99.90;;;;;;5078251;28;20093;-77
2021/11/10 03:12:09;;;;;;;30.15;16.25;;;10.10;99.90;;;;;;5056768;28;20036;-78
2021/11/10 03:14:39;;;;;;;29.55;15.23;;;9.80;99.90;;;;;;5075711;28;20078;-79
2021/11/10 03:17:08;;;;;;;31.88;15.55;;;9.80;99.90;;;;;;5069912;28;20039;-79
2021/11/10 03:19:34;;;;;;;32.45;15.07;;;9.80;99.90;;;;;;5053178;28;20432;-78
2021/11/10 03:22:01;;;;;;;31.27;15.50;;;9.90;99.90;;;;;;5057269;28;20056;-77
2021/11/10 03:24:27;;;;;;;26.02;15.30;;;9.90;99.90;;;;;;5051371;28;20504;-78
2021/11/10 03:26:53;;;;;;;33.83;15.93;;;10.30;99.90;;;;;;5064210;28;20052;-77
2021/11/10 03:29:20;;;;;;;34.80;15.27;;;9.90;99.90;;;;;;5058645;28;20110;-77
2021/11/10 03:31:46;;;;;;;35.03;15.98;;;9.90;99.90;;;;;;5068641;28;20516;-76
2021/11/10 03:34:12;;;;;;;32.70;16.63;;;9.90;99.90;;;;;;5050210;28;20075;-77
2021/11/10 03:36:39;;;;;;;32.58;16.13;;;10.40;99.90;;;;;;5070753;28;20039;-76
2021/11/10 03:39:07;;;;;;;27.20;14.85;;;10.20;99.90;;;;;;5090750;28;20066;-77
2021/11/10 03:41:33;;;;;;;38.88;16.80;;;9.90;99.90;;;;;;5083475;28;20123;-78
2021/11/10 03:43:59;;;;;;;36.90;17.08;;;9.80;99.90;;;;;;5053219;28;20040;-78
2021/11/10 03:46:25;;;;;;;33.88;16.95;;;9.90;99.90;;;;;;5074079;28;20400;-78
2021/11/10 03:48:52;;;;;;;31.50;16.67;;;9.90;99.90;;;;;;5054590;28;20047;-78
2021/11/10 03:51:18;;;;;;;37.35;16.40;;;10.10;99.90;;;;;;5049290;28;20043;-78
2021/11/10 03:53:44;;;;;;;35.05;17.75;;;9.90;99.90;;;;;;5055739;28;20127;-76
2021/11/10 03:56:10;;;;;;;34.38;17.10;;;10.20;99.90;;;;;;5064624;28;20044;-77
2021/11/10 03:58:36;;;;;;;31.23;17.40;;;9.90;99.90;;;;;;5064395;28;20086;-77
2021/11/10 04:01:02;;;;;;;40.78;17.95;;;9.90;99.90;;;;;;5028466;28;20033;-77
2021/11/10 04:03:28;;;;;;;32.88;17.27;;;9.90;99.90;;;;;;5052178;28;20037;-77
2021/11/10 04:05:54;;;;;;;35.88;17.17;;;9.90;99.90;;;;;;5067360;28;20037;-77
2021/11/10 04:08:21;;;;;;;32.20;17.95;;;9.90;99.90;;;;;;5085749;28;20476;-77
2021/11/10 04:10:47;;;;;;;31.88;17.85;;;9.90;99.90;;;;;;5050238;28;20036;-77
2021/11/10 04:13:12;;;;;;;31.70;18.17;;;10.50;99.90;;;;;;5064623;28;20415;-77
2021/11/10 04:15:38;;;;;;;35.17;17.88;;;9.90;99.90;;;;;;5091403;28;20111;-77
2021/11/10 04:18:04;;;;;;;37.00;17.55;;;9.90;99.90;;;;;;5066261;28;20046;-76
2021/11/10 04:20:30;;;;;;;37.72;18.02;;;9.90;99.90;;;;;;5073481;28;20036;-77
2021/11/10 04:22:57;;;;;;;35.38;18.65;;;9.90;99.90;;;;;;5092599;28;20043;-77
2021/11/10 04:25:23;;;;;;;35.97;18.45;;;9.90;99.90;;;;;;5061623;28;20053;-78
2021/11/10 04:27:49;;;;;;;33.13;19.50;;;9.90;99.90;;;;;;5056668;28;20101;-78
2021/11/10 04:30:16;;;;;;;40.90;19.13;;;10.10;99.90;;;;;;5037187;28;20493;-78
2021/11/10 04:32:42;;;;;;;35.67;19.20;;;9.90;99.90;;;;;;5065707;28;20147;-78
2021/11/10 04:35:10;;;;;;;37.42;19.50;;;10.20;99.90;;;;;;5082458;28;20036;-78
2021/11/10 04:37:36;;;;;;;38.45;18.75;;;9.90;99.90;;;;;;5056114;28;20052;-77
2021/11/10 04:40:03;;;;;;;36.38;18.30;;;9.90;99.90;;;;;;5061835;28;20032;-78
2021/11/10 04:42:29;;;;;;;43.58;19.40;;;9.90;99.90;;;;;;5056722;28;20040;-77
2021/11/10 04:45:07;;;;;;;42.03;18.17;;;9.90;99.90;;;;;;5074229;28;20080;-78
2021/11/10 04:47:34;;;;;;;30.38;17.88;;;10.00;99.90;;;;;;5067043;28;20040;-79
2021/11/10 04:50:00;;;;;;;39.80;18.40;;;9.90;99.90;;;;;;5072300;28;20032;-79
2021/11/10 04:52:26;;;;;;;36.47;19.15;;;9.90;99.90;;;;;;5085247;28;20036;-79
2021/11/10 04:54:53;;;;;;;41.03;17.90;;;9.90;99.90;;;;;;5052965;28;20422;-80
2021/11/10 04:57:19;;;;;;;36.28;17.95;;;9.90;99.90;;;;;;5037778;28;20044;-80
2021/11/10 04:59:45;;;;;;;32.53;18.10;;;10.20;99.90;;;;;;5053156;28;20480;-78
2021/11/10 05:04:38;;;;;;;40.35;17.73;;;9.90;99.90;;;;;;5060552;28;20493;-77
2021/11/10 05:07:05;;;;;;;33.88;16.42;;;9.90;99.90;;;;;;5071614;28;20036;-79
2021/11/10 05:09:31;;;;;;;32.85;16.65;;;9.90;99.90;;;;;;5064195;28;20047;-78
2021/11/10 05:11:57;;;;;;;36.72;17.10;;;9.90;99.90;;;;;;5071839;28;20406;-78
2021/11/10 05:14:24;;;;;;;36.83;17.25;;;9.90;99.90;;;;;;5078181;28;20040;-78
2021/11/10 05:16:50;;;;;;;33.17;17.77;;;9.90;99.90;;;;;;5061097;28;20075;-78
2021/11/10 05:19:16;;;;;;;31.02;16.48;;;9.90;99.90;;;;;;5072585;28;20040;-78
2021/11/10 05:21:42;;;;;;;31.38;16.70;;;9.90;99.90;;;;;;5070060;28;20036;-77
2021/11/10 05:24:09;;;;;;;31.40;15.35;;;9.90;99.90;;;;;;5067540;28;20052;-77
2021/11/10 05:26:36;;;;;;;33.45;15.40;;;9.90;99.90;;;;;;5054940;28;20097;-77
2021/11/10 05:29:02;;;;;;;28.95;14.25;;;10.20;99.90;;;;;;5057484;28;20128;-78
2021/11/10 05:31:28;;;;;;;32.03;14.32;;;9.90;99.90;;;;;;5069692;28;20115;-78
2021/11/10 05:33:54;;;;;;;28.75;14.43;;;9.90;99.90;;;;;;5060969;28;20039;-78
2021/11/10 05:36:20;;;;;;;34.05;14.32;;;9.90;99.90;;;;;;5054629;28;20035;-78
2021/11/10 05:38:46;;;;;;;37.35;14.70;;;9.90;99.90;;;;;;5077433;28;20052;-77
2021/11/10 05:41:12;;;;;;;38.35;14.65;;;9.90;99.90;;;;;;5075782;28;20040;-78
2021/11/10 05:43:38;;;;;;;29.67;13.40;;;9.80;99.90;;;;;;5050130;28;20047;-79
2021/11/10 05:46:04;;;;;;;33.40;14.13;;;9.80;99.90;;;;;;5091016;28;20082;-79
2021/11/10 05:48:31;;;;;;;27.17;13.02;;;10.30;99.90;;;;;;5041593;28;20504;-79
2021/11/10 05:50:57;;;;;;;27.45;13.23;;;9.90;99.90;;;;;;5088610;28;20041;-79
2021/11/10 05:53:23;;;;;;;30.02;13.05;;;9.80;99.90;;;;;;5071917;28;20478;-78
2021/11/10 05:55:55;;;;;;;26.90;13.10;;;9.80;99.90;;;;;;5068584;28;20036;-79
2021/11/10 05:58:22;;;;;;;28.95;12.93;;;9.80;99.90;;;;;;5076392;28;20044;-78
2021/11/10 06:00:52;;;;;;;30.83;12.57;;;9.90;99.90;;;;;;5070285;28;20040;-78
2021/11/10 06:03:18;;;;;;;28.95;12.65;;;9.90;99.90;;;;;;5043047;28;20036;-78
2021/11/10 06:05:44;;;;;;;25.95;12.63;;;9.90;99.90;;;;;;5077009;28;20065;-78
2021/11/10 06:08:10;;;;;;;25.58;12.75;;;9.90;99.90;;;;;;5067173;28;20047;-77
2021/11/10 06:10:36;;;;;;;28.20;12.38;;;9.90;99.90;;;;;;5040326;28;20044;-76
2021/11/10 06:13:02;;;;;;;29.30;12.90;;;9.90;99.90;;;;;;5069276;28;20541;-77
2021/11/10 06:15:28;;;;;;;28.33;12.35;;;9.90;99.90;;;;;;5042998;28;20047;-76
2021/11/10 06:17:54;;;;;;;29.10;13.23;;;10.50;99.90;;;;;;5062334;28;20032;-75
2021/11/10 06:20:20;;;;;;;24.92;11.88;;;9.90;99.90;;;;;;5059551;28;20093;-76
2021/11/10 06:22:46;;;;;;;29.30;12.50;;;9.90;99.90;;;;;;5050162;28;20082;-76
2021/11/10 06:25:13;;;;;;;25.80;12.68;;;9.90;99.90;;;;;;5069571;28;20051;-75
2021/11/10 06:27:39;;;;;;;24.55;13.13;;;9.90;99.90;;;;;;5054830;28;20487;-78
2021/11/10 06:30:10;;;;;;;26.40;13.05;;;9.90;99.90;;;;;;5064010;28;20451;-77
2021/11/10 06:32:48;;;;;;;;;;;;;;;;;;;;;
2021/11/10 06:35:18;;;;;;;31.15;14.13;;;9.90;99.90;;;;;;5056515;28;20036;-79
2021/11/10 06:37:44;;;;;;;28.48;14.20;;;9.90;99.90;;;;;;5073453;28;20400;-80
2021/11/10 06:40:11;;;;;;;29.30;15.05;;;9.90;99.90;;;;;;5035455;28;20052;-80
2021/11/10 06:42:38;;;;;;;29.85;14.52;;;9.90;99.90;;;;;;5047404;28;20048;-78
2021/11/10 06:45:05;;;;;;;29.30;13.68;;;9.90;99.90;;;;;;5063258;28;20051;-73
2021/11/10 06:47:31;;;;;;;25.20;14.15;;;9.90;99.90;;;;;;5064734;28;20033;-73
2021/11/10 06:49:57;;;;;;;28.52;14.68;;;9.90;99.90;;;;;;5048213;28;20044;-77
2021/11/10 06:52:23;;;;;;;28.38;15.00;;;9.90;99.90;;;;;;5085399;28;20033;-76
2021/11/10 06:54:50;;;;;;;31.70;15.38;;;10.00;99.90;;;;;;5063075;28;20123;-71
2021/11/10 06:57:20;;;;;;;28.45;14.90;;;10.00;99.90;;;;;;5068383;28;20044;-71
2021/11/10 06:59:45;;;;;;;31.98;16.38;;;10.00;99.90;;;;;;5073714;28;20036;-71
2021/11/10 07:02:11;;;;;;;31.77;16.08;;;10.00;99.90;;;;;;5091149;28;20035;-71
2021/11/10 07:04:37;;;;;;;27.88;16.55;;;10.00;99.90;;;;;;5092333;28;20039;-75
2021/11/10 07:07:03;;;;;;;30.42;16.60;;;10.30;99.90;;;;;;5064590;28;20032;-75
2021/11/10 07:09:29;;;;;;;30.02;16.40;;;10.00;99.90;;;;;;5075522;28;20118;-75
2021/11/10 07:11:56;;;;;;;29.55;17.48;;;10.00;99.90;;;;;;5059183;28;20139;-75
2021/11/10 07:14:23;;;;;;;29.45;17.80;;;10.40;99.90;;;;;;5079767;28;20043;-75
2021/11/10 07:16:48;;;;;;;31.33;17.10;;;9.90;99.90;;;;;;5094033;28;20118;-75
2021/11/10 07:19:14;;;;;;;33.25;18.17;;;10.00;99.90;;;;;;5075479;28;20513;-75
2021/11/10 07:21:40;;;;;;;29.70;17.80;;;10.00;99.90;;;;;;5075616;28;20044;-76
2021/11/10 07:24:06;;;;;;;28.85;17.67;;;9.90;99.90;;;;;;5043926;28;20162;-76
2021/11/10 07:26:33;;;;;;;35.38;18.75;;;9.90;99.90;;;;;;5068146;28;20053;-76
2021/11/10 07:28:59;;;;;;;31.27;18.48;;;9.90;99.90;;;;;;5038400;28;20040;-76
2021/11/10 07:31:25;;;;;;;37.85;18.88;;;9.90;99.90;;;;;;5091726;28;20115;-75
2021/11/10 07:33:50;;;;;;;28.55;18.17;;;10.40;99.90;;;;;;5062948;28;20460;-75
2021/11/10 07:36:17;;;;;;;32.83;17.48;;;9.90;99.90;;;;;;5073472;28;20036;-76
2021/11/10 07:38:43;;;;;;;29.35;18.25;;;10.00;99.90;;;;;;5031396;28;20481;-75
2021/11/10 07:41:13;;;;;;;29.23;18.00;;;10.00;99.90;;;;;;5088121;28;20118;-76
2021/11/10 07:43:39;;;;;;;30.65;18.00;;;9.90;99.90;;;;;;5064360;28;20450;-75
2021/11/10 07:46:16;;;;;;;31.60;18.05;;;9.90;99.90;;;;;;5061027;28;20094;-76
2021/11/10 07:48:43;;;;;;;31.48;18.15;;;10.00;99.90;;;;;;5058081;28;20563;-76
2021/11/10 07:51:09;;;;;;;31.98;17.63;;;10.00;99.90;;;;;;5060744;28;20170;-76
2021/11/10 07:53:35;;;;;;;35.47;17.15;;;10.00;99.90;;;;;;5074925;28;20097;-76
2021/11/10 07:56:01;;;;;;;29.05;16.80;;;10.00;99.90;;;;;;5058209;28;20142;-76
2021/11/10 07:58:27;;;;;;;34.30;17.23;;;10.00;99.90;;;;;;5074500;28;20086;-76
2021/11/10 08:00:53;;;;;;;29.20;17.10;;;10.00;99.90;;;;;;5084337;28;20044;-76
2021/11/10 08:03:19;;;;;;;26.95;16.60;;;10.60;99.90;;;;;;5092986;28;20146;-76
2021/11/10 08:05:45;;;;;;;26.08;16.75;;;10.00;99.90;;;;;;5092777;28;20076;-76
2021/11/10 08:08:11;;;;;;;33.72;17.10;;;10.00;99.90;;;;;;5058118;28;20504;-76
2021/11/10 08:10:37;;;;;;;28.52;16.15;;;10.00;99.90;;;;;;5060297;28;20052;-76
2021/11/10 08:13:03;;;;;;;33.80;16.83;;;10.00;99.90;;;;;;5065443;28;20401;-76
2021/11/10 08:15:29;;;;;;;31.13;16.63;;;10.10;99.90;;;;;;5068409;28;20036;-76
2021/11/10 08:17:55;;;;;;;24.88;15.70;;;10.10;99.90;;;;;;5067389;28;20040;-76
2021/11/10 08:20:21;;;;;;;24.10;16.42;;;10.10;99.90;;;;;;5068061;28;20131;-75
2021/11/10 08:22:47;;;;;;;25.05;15.88;;;10.10;99.90;;;;;;5057551;28;20131;-75
2021/11/10 08:25:16;;;;;;;27.25;15.73;;;10.10;99.90;;;;;;5081149;28;20473;-75
2021/11/10 08:27:42;;;;;;;26.92;15.77;;;10.20;99.90;;;;;;5072350;28;20043;-76
2021/11/10 08:30:11;;;;;;;26.98;15.13;;;10.10;99.90;;;;;;5092754;28;20400;-76
2021/11/10 08:32:37;;;;;;;24.67;14.45;;;10.20;99.90;;;;;;5043205;28;20048;-76
2021/11/10 08:35:04;;;;;;;21.77;14.70;;;10.20;99.90;;;;;;5084202;28;20408;-76
2021/11/10 08:37:31;;;;;;;27.55;14.70;;;10.20;99.90;;;;;;5086991;28;20039;-76
2021/11/10 08:39:58;;;;;;;23.90;15.23;;;10.30;99.90;;;;;;5092152;28;20400;-76
2021/11/10 08:42:29;;;;;;;28.25;14.32;;;10.30;99.90;;;;;;5092333;28;20040;-76
2021/11/10 08:44:57;;;;;;;25.52;13.40;;;10.20;99.90;;;;;;5066454;28;20119;-76
2021/11/10 08:47:23;;;;;;;25.23;14.27;;;10.30;99.90;;;;;;5074848;28;20400;-75
2021/11/10 08:49:49;;;;;;;21.73;13.10;;;10.30;99.90;;;;;;5090949;28;20043;-75
2021/11/10 08:52:15;;;;;;;25.13;13.18;;;10.40;99.90;;;;;;5092741;28;20029;-75
2021/11/10 08:54:41;;;;;;;21.27;12.48;;;10.40;99.90;;;;;;5092571;28;20402;-75
2021/11/10 08:57:07;;;;;;;22.60;12.23;;;10.40;99.90;;;;;;5074431;28;20040;-76
2021/11/10 08:59:33;;;;;;;25.55;11.73;;;10.40;99.90;;;;;;5074284;28;20040;-76
2021/11/10 09:01:58;;;;;;;21.00;11.55;;;10.40;99.90;;;;;;5092530;28;20039;-76
2021/11/10 09:04:24;;;;;;;24.27;11.80;;;10.40;99.90;;;;;;5057486;28;20047;-76
2021/11/10 09:06:51;;;;;;;31.83;12.07;;;10.50;99.90;;;;;;5090720;28;20044;-76
2021/11/10 09:09:18;;;;;;;28.05;11.38;;;10.40;99.90;;;;;;5037925;28;20044;-76
2021/11/10 09:11:45;;;;;;;20.33;10.77;;;10.40;99.90;;;;;;5066748;28;20044;-76
2021/11/10 09:14:11;;;;;;;24.70;11.07;;;10.40;99.90;;;;;;5078037;28;20460;-75
2021/11/10 09:16:37;;;;;;;24.67;11.50;;;10.40;99.90;;;;;;5074077;28;20050;-76
2021/11/10 09:19:03;;;;;;;23.52;11.57;;;10.40;99.90;;;;;;5092396;28;20044;-76
2021/11/10 09:21:30;;;;;;;25.30;11.30;;;10.40;99.90;;;;;;5037469;28;20405;-76
2021/11/10 09:23:56;;;;;;;22.48;10.63;;;10.40;99.90;;;;;;5047916;28;20060;-76
2021/11/10 09:26:22;;;;;;;19.48;11.27;;;10.50;99.90;;;;;;5092033;28;20519;-76
2021/11/10 09:28:48;;;;;;;23.17;10.70;;;10.50;99.90;;;;;;5074146;28;20048;-76
2021/11/10 09:31:14;;;;;;;20.98;10.05;;;10.60;99.90;;;;;;5092389;28;20121;-76
2021/11/10 09:33:41;;;;;;;18.88;10.30;;;10.60;99.90;;;;;;5057148;28;20052;-76
2021/11/10 09:36:08;;;;;;;22.42;10.52;;;10.60;99.90;;;;;;5073895;28;20396;-76
2021/11/10 09:38:35;;;;;;;22.00;10.82;;;10.70;99.90;;;;;;5043114;28;20045;-76
2021/11/10 09:41:04;;;;;;;22.90;9.30;;;10.70;99.90;;;;;;5052932;28;20051;-76
2021/11/10 09:43:39;;;;;;;22.67;10.25;;;10.70;99.90;;;;;;5073730;28;20035;-76
2021/11/10 09:46:07;;;;;;;20.33;10.63;;;10.70;99.90;;;;;;5056020;28;20044;-76
2021/11/10 09:48:33;;;;;;;22.10;9.65;;;10.70;99.90;;;;;;5079396;28;20467;-76
2021/11/10 09:51:00;;;;;;;22.15;9.82;;;10.70;99.90;;;;;;5060506;28;20048;-76
2021/11/10 09:53:26;;;;;;;26.10;10.10;;;10.70;99.90;;;;;;5043044;28;20071;-76
2021/11/10 09:55:55;;;;;;;20.55;9.63;;;10.70;99.90;;;;;;5047399;28;20492;-76
2021/11/10 09:58:24;;;;;;;24.48;10.48;;;10.80;99.90;;;;;;5093258;28;20504;-76
2021/11/10 10:01:04;;;;;;;28.35;10.48;;;10.80;99.90;;;;;;5077100;28;20499;-76
2021/11/10 10:03:35;;;;;;;27.90;10.70;;;10.80;99.90;;;;;;5046129;28;20066;-76
2021/11/10 10:06:11;;;;;;;21.30;9.88;;;10.90;99.90;;;;;;5069265;28;20040;-76
2021/11/10 10:08:37;;;;;;;28.63;10.73;;;10.90;99.90;;;;;;5039692;28;20048;-76
2021/11/10 10:11:02;;;;;;;21.23;10.05;;;10.90;99.90;;;;;;5058705;28;20069;-76
2021/11/10 10:13:32;;;;;;;21.25;9.77;;;10.90;99.90;;;;;;5077012;28;20111;-76
2021/11/10 10:15:57;;;;;;;22.90;10.00;;;10.90;99.90;;;;;;5077757;28;20063;-76
2021/11/10 10:19:03;;;;;;;21.25;10.98;;;11.00;99.90;;;;;;5049011;28;20040;-76
2021/11/10 10:21:41;;;;;;;21.48;10.27;;;11.00;99.90;;;;;;5044736;28;20604;-76
2021/11/10 10:24:09;;;;;;;28.33;10.50;;;11.00;99.90;;;;;;4998770;28;20076;-76
2021/11/10 10:26:38;;;;;;;27.40;10.98;;;11.00;99.90;;;;;;5030809;28;20065;-76
2021/11/10 10:29:09;;;;;;;22.55;10.00;;;11.00;99.90;;;;;;5028521;28;20115;-76
2021/11/10 10:31:37;;;;;;;27.27;9.63;;;11.00;99.90;;;;;;5032159;28;20046;-76
2021/11/10 10:34:08;;;;;;;24.45;10.13;;;11.10;99.90;;;;;;5032387;28;20046;-75
2021/11/10 10:36:36;;;;;;;26.52;10.30;;;11.10;99.90;;;;;;5035842;28;20052;-75
2021/11/10 10:39:19;;;;;;;25.77;9.73;;;11.00;99.90;;;;;;5015474;28;20136;-76
2021/11/10 10:41:53;;;;;;;23.23;9.95;;;11.10;99.90;;;;;;5034757;28;20033;-76
2021/11/10 10:44:22;;;;;;;25.58;11.40;;;11.10;99.90;;;;;;5032145;28;20069;-76
2021/11/10 10:46:56;;;;;;;22.38;10.13;;;11.00;99.90;;;;;;5011535;28;20136;-75
2021/11/10 10:49:30;;;;;;;25.08;10.30;;;11.10;99.90;;;;;;5026404;28;20077;-75
2021/11/10 10:52:18;;;;;;;26.20;10.02;;;11.10;99.90;;;;;;5028218;28;20053;-75
2021/11/10 10:54:46;;;;;;;23.30;9.82;;;11.10;99.90;;;;;;5030417;28;20041;-76
2021/11/10 10:57:19;;;;;;;20.63;9.20;;;11.10;99.90;;;;;;5028881;28;20084;-76
2021/11/10 10:59:45;;;;;;;20.67;9.60;;;11.10;99.90;;;;;;5046920;28;20127;-76
2021/11/10 11:02:11;;;;;;;27.63;9.85;;;11.10;99.90;;;;;;5076054;28;20452;-75
2021/11/10 11:04:45;;;;;;;22.98;9.40;;;11.10;99.90;;;;;;5075633;28;20551;-75
2021/11/10 11:07:12;;;;;;;22.70;10.07;;;11.20;99.90;;;;;;5087936;28;20105;-76
2021/11/10 11:09:43;;;;;;;22.67;9.55;;;11.10;99.90;;;;;;5074082;28;20041;-76
2021/11/10 11:12:14;;;;;;;22.48;9.80;;;11.10;99.90;;;;;;5073488;28;20071;-75
2021/11/10 11:15:02;;;;;;;20.17;9.75;;;11.10;99.90;;;;;;5062825;28;20036;-75
2021/11/10 11:17:41;;;;;;;21.05;9.68;;;11.10;99.90;;;;;;5075694;28;20119;-75
2021/11/10 11:20:27;;;;;;;25.08;10.70;;;11.20;99.90;;;;;;5075861;28;20204;-75
2021/11/10 11:22:56;;;;;;;28.25;10.48;;;11.20;99.90;;;;;;5075439;28;20060;-75
2021/11/10 11:25:28;;;;;;;24.58;10.38;;;11.20;99.90;;;;;;5062929;28;20047;-75
2021/11/10 11:27:57;;;;;;;20.67;9.77;;;11.20;99.90;;;;;;5058169;28;20044;-75
2021/11/10 11:30:25;;;;;;;31.20;11.60;;;11.30;99.90;;;;;;5062774;28;20044;-75
2021/11/10 11:32:55;;;;;;;28.80;10.45;;;11.50;99.90;;;;;;5069271;28;20044;-75
2021/11/10 11:35:39;;;;;;;26.25;10.23;;;11.30;99.90;;;;;;5073314;28;20048;-75
2021/11/10 11:38:10;;;;;;;28.92;10.55;;;11.30;99.90;;;;;;5060754;28;20036;-75
2021/11/10 11:40:44;;;;;;;28.83;10.45;;;11.60;99.90;;;;;;5063363;28;20040;-75
2021/11/10 11:43:14;;;;;;;25.15;10.50;;;11.30;99.90;;;;;;5091866;28;20032;-76
2021/11/10 11:45:45;;;;;;;26.38;10.15;;;11.30;99.90;;;;;;5050112;28;20048;-76
2021/11/10 11:48:11;;;;;;;23.92;10.68;;;11.40;99.90;;;;;;5062281;28;20126;-76
2021/11/10 11:50:40;;;;;;;26.58;9.75;;;11.30;99.90;;;;;;5075139;28;20028;-76
2021/11/10 11:53:07;;;;;;;23.17;10.40;;;11.40;99.90;;;;;;5076011;28;20048;-76
2021/11/10 11:55:55;;;;;;;19.10;9.85;;;11.40;99.90;;;;;;5063746;28;20082;-75
2021/11/10 11:58:31;;;;;;;26.15;10.45;;;11.40;99.90;;;;;;5058057;28;20043;-75
2021/11/10 12:01:15;;;;;;;22.63;10.13;;;11.40;99.90;;;;;;5075059;28;20113;-75
2021/11/10 12:03:43;;;;;;;26.98;10.40;;;11.40;99.90;;;;;;5089852;28;20047;-76
2021/11/10 12:06:13;;;;;;;28.58;10.68;;;11.40;99.90;;;;;;5080519;28;20044;-75
2021/11/10 12:08:45;;;;;;;32.03;10.88;;;11.40;99.90;;;;;;5069740;28;20052;-76
2021/11/10 12:11:22;;;;;;;25.17;11.10;;;11.40;99.90;;;;;;5085029;28;20111;-77
2021/11/10 12:14:09;;;;;;;21.55;10.45;;;11.40;99.90;;;;;;5069851;28;20506;-75
2021/11/10 12:17:06;;;;;;;27.25;10.95;;;11.40;99.90;;;;;;5056946;28;20472;-76
2021/11/10 12:19:56;;;;;;;32.05;10.52;;;11.30;99.90;;;;;;5052147;28;20036;-75
2021/11/10 12:22:23;;;;;;;23.95;10.40;;;11.30;99.90;;;;;;5072710;28;20040;-75
2021/11/10 12:25:16;;;;;;;28.77;11.35;;;11.30;99.90;;;;;;5046510;28;20055;-76
2021/11/10 12:27:54;;;;;;;32.17;11.60;;;11.30;99.90;;;;;;5058422;28;20119;-75
2021/11/10 12:30:24;;;;;;;28.80;11.63;;;11.10;99.90;;;;;;5054902;28;20048;-76
2021/11/10 12:32:53;;;;;;;27.75;11.32;;;11.30;99.90;;;;;;5068744;28;20040;-75
2021/11/10 12:35:36;;;;;;;27.45;11.65;;;11.30;99.90;;;;;;5056847;28;20040;-76
2021/11/10 12:38:21;;;;;;;29.02;12.82;;;11.30;99.90;;;;;;5077275;28;20123;-75
2021/11/10 12:41:00;;;;;;;31.27;11.73;;;11.30;99.90;;;;;;5077944;28;20039;-75
2021/11/10 12:43:36;;;;;;;37.78;12.93;;;11.30;99.90;;;;;;5099759;28;20560;-75
2021/11/10 12:46:04;;;;;;;;;;;11.30;99.90;;;;;;5063973;28;20482;-76